createdAt,value
2023-01-11T00:02:19.360Z,4.90
2023-01-11T00:04:48.457Z,5.10
2023-01-11T00:07:16.230Z,5.00
2023-01-11T00:09:44.693Z,5.20
2023-01-11T00:12:14.193Z,5.00
2023-01-11T00:14:42.056Z,5.00
2023-01-11T00:17:09.975Z,5.00
2023-01-11T00:19:37.723Z,5.00
2023-01-11T00:22:06.825Z,5.00
2023-01-11T00:24:34.578Z,5.00
2023-01-11T00:27:02.312Z,5.00
2023-01-11T00:29:30.085Z,4.90
2023-01-11T00:31:57.897Z,5.10
2023-01-11T00:34:25.795Z,5.10
2023-01-11T00:36:53.550Z,5.10
2023-01-11T00:39:22.675Z,5.20
2023-01-11T00:42:08.080Z,5.30
2023-01-11T00:44:53.522Z,5.10
2023-01-11T00:47:38.893Z,5.10
2023-01-11T00:50:07.224Z,5.20
2023-01-11T00:52:34.991Z,5.00
2023-01-11T00:55:04.229Z,5.20
2023-01-11T00:57:32.070Z,5.20
2023-01-11T01:00:00.455Z,5.20
2023-01-11T01:02:28.252Z,5.20
2023-01-11T01:04:56.534Z,5.10
2023-01-11T01:07:24.341Z,5.10
2023-01-11T01:09:52.126Z,5.20
2023-01-11T01:12:35.179Z,5.10
2023-01-11T01:15:03.555Z,5.20
2023-01-11T01:17:31.326Z,5.20
2023-01-11T01:19:59.081Z,5.30
2023-01-11T01:22:26.867Z,5.20
2023-01-11T01:24:54.611Z,5.10
2023-01-11T01:27:23.724Z,5.30
2023-01-11T01:29:51.482Z,5.10
2023-01-11T01:32:19.250Z,5.20
2023-01-11T01:34:46.983Z,5.10
2023-01-11T01:37:15.861Z,5.20
2023-01-11T01:39:43.694Z,5.30
2023-01-11T01:42:15.002Z,5.40
2023-01-11T01:45:00.895Z,5.50
2023-01-11T01:47:34.983Z,5.20
2023-01-11T01:50:08.010Z,5.30
2023-01-11T01:52:36.517Z,5.30
2023-01-11T01:55:08.182Z,5.30
2023-01-11T01:57:38.645Z,5.50
2023-01-11T02:00:10.299Z,5.30
2023-01-11T02:02:39.199Z,5.30
2023-01-11T02:05:08.752Z,5.30
2023-01-11T02:07:40.078Z,5.30
2023-01-11T02:10:09.803Z,5.20
2023-01-11T02:12:41.538Z,5.20
2023-01-11T02:15:12.171Z,5.30
2023-01-11T02:17:39.965Z,5.40
2023-01-11T02:20:34.377Z,5.20
2023-01-11T02:23:21.367Z,5.30
2023-01-11T02:26:37.256Z,5.40
2023-01-11T02:29:12.342Z,5.30
2023-01-11T02:31:44.925Z,5.40
2023-01-11T02:34:31.024Z,5.20
2023-01-11T02:37:12.538Z,5.50
2023-01-11T02:39:49.547Z,5.40
2023-01-11T02:42:43.642Z,5.40
2023-01-11T02:45:20.912Z,5.40
2023-01-11T02:47:56.350Z,5.50
2023-01-11T02:50:31.348Z,5.40
2023-01-11T02:53:04.196Z,5.50
2023-01-11T02:55:38.505Z,5.40
2023-01-11T02:58:11.077Z,5.40
2023-01-11T03:00:41.617Z,5.40
2023-01-11T03:03:14.063Z,5.40
2023-01-11T03:05:48.453Z,5.50
2023-01-11T03:08:35.938Z,5.50
2023-01-11T03:11:07.551Z,5.40
2023-01-11T03:13:47.401Z,5.30
2023-01-11T03:16:28.151Z,5.40
2023-01-11T03:19:10.405Z,5.30
2023-01-11T03:21:49.307Z,5.30
2023-01-11T03:24:27.134Z,5.60
2023-01-11T03:27:06.411Z,5.50
2023-01-11T03:29:39.951Z,5.40
2023-01-11T03:32:18.100Z,5.30
2023-01-11T03:34:51.077Z,5.50
2023-01-11T03:37:26.328Z,5.40
2023-01-11T03:40:00.563Z,5.40
2023-01-11T03:42:29.940Z,5.50
2023-01-11T03:45:00.291Z,5.50
2023-01-11T03:47:32.882Z,5.60
2023-01-11T03:50:05.025Z,5.50
2023-01-11T03:52:38.746Z,5.50
2023-01-11T03:55:11.165Z,5.40
2023-01-11T03:57:41.728Z,5.60
2023-01-11T04:00:11.625Z,5.40
2023-01-11T04:02:42.680Z,5.60
2023-01-11T04:05:11.813Z,5.60
2023-01-11T04:07:39.947Z,5.70
2023-01-11T04:10:08.908Z,5.60
2023-01-11T04:12:36.679Z,5.60
2023-01-11T04:15:05.699Z,5.60
2023-01-11T04:17:33.521Z,5.60
2023-01-11T04:20:02.640Z,5.70
2023-01-11T04:22:30.385Z,5.50
2023-01-11T04:24:58.172Z,5.50
2023-01-11T04:27:26.077Z,5.60
2023-01-11T04:29:53.854Z,5.60
2023-01-11T04:32:21.610Z,5.60
2023-01-11T04:34:50.477Z,5.60
2023-01-11T04:37:19.594Z,5.60
2023-01-11T04:39:47.360Z,5.60
2023-01-11T04:42:21.054Z,5.70
2023-01-11T04:44:50.122Z,5.70
2023-01-11T04:47:19.300Z,5.60
2023-01-11T04:49:47.373Z,5.60
2023-01-11T04:52:16.538Z,5.80
2023-01-11T04:54:46.077Z,5.70
2023-01-11T04:57:15.644Z,5.70
2023-01-11T04:59:43.768Z,5.80
2023-01-11T05:02:11.513Z,5.70
2023-01-11T05:04:39.272Z,5.70
2023-01-11T05:07:09.351Z,5.80
2023-01-11T05:09:37.170Z,5.80
2023-01-11T05:12:06.524Z,5.80
2023-01-11T05:14:34.321Z,5.70
2023-01-11T05:17:02.119Z,5.80
2023-01-11T05:19:29.882Z,5.70
2023-01-11T05:21:57.643Z,5.70
2023-01-11T05:24:25.395Z,5.60
2023-01-11T05:26:53.334Z,5.80
2023-01-11T05:29:22.601Z,5.80
2023-01-11T05:31:51.204Z,5.70
2023-01-11T05:34:19.188Z,5.90
2023-01-11T05:36:47.158Z,5.80
2023-01-11T05:39:15.789Z,5.80
2023-01-11T05:41:43.699Z,5.90
2023-01-11T05:44:30.465Z,5.70
2023-01-11T05:46:59.798Z,5.70
2023-01-11T05:49:27.577Z,5.90
2023-01-11T05:51:55.372Z,5.70
2023-01-11T05:54:23.265Z,5.70
2023-01-11T05:56:51.023Z,5.90
2023-01-11T05:59:18.783Z,5.80
2023-01-11T06:01:46.626Z,5.70
2023-01-11T06:04:15.724Z,5.80
2023-01-11T06:06:43.504Z,5.50
2023-01-11T06:09:11.423Z,5.70
2023-01-11T06:11:39.173Z,5.80
2023-01-11T06:14:06.925Z,5.70
2023-01-11T06:16:34.828Z,5.70
2023-01-11T06:19:02.591Z,5.80
2023-01-11T06:21:31.701Z,5.70
2023-01-11T06:23:59.465Z,5.80
2023-01-11T06:26:27.207Z,5.60
2023-01-11T06:28:55.077Z,5.80
2023-01-11T06:31:22.901Z,5.80
2023-01-11T06:33:50.705Z,5.90
2023-01-11T06:36:18.486Z,5.80
2023-01-11T06:38:47.594Z,5.80
2023-01-11T06:41:15.896Z,5.90
2023-01-11T06:43:43.656Z,5.70
2023-01-11T06:46:12.745Z,5.80
2023-01-11T06:48:40.607Z,5.80
2023-01-11T06:51:10.888Z,5.90
2023-01-11T06:53:39.413Z,5.80
2023-01-11T06:56:11.493Z,5.90
2023-01-11T06:58:39.654Z,5.90
2023-01-11T07:01:07.883Z,5.80
2023-01-11T07:03:35.841Z,5.80
2023-01-11T07:06:04.395Z,5.70
2023-01-11T07:08:32.171Z,5.90
2023-01-11T07:10:59.980Z,5.80
2023-01-11T07:13:29.074Z,5.90
2023-01-11T07:15:58.757Z,5.80
2023-01-11T07:18:26.583Z,5.90
2023-01-11T07:20:54.387Z,5.70
2023-01-11T07:23:22.168Z,5.90
2023-01-11T07:25:50.209Z,5.70
2023-01-11T07:28:18.035Z,5.70
2023-01-11T07:31:02.665Z,5.90
2023-01-11T07:33:30.501Z,5.90
2023-01-11T07:36:00.646Z,5.80
2023-01-11T07:38:30.014Z,5.90
2023-01-11T07:40:57.798Z,5.90
2023-01-11T07:43:24.611Z,5.90
2023-01-11T07:45:54.448Z,5.90
2023-01-11T07:48:26.306Z,5.90
2023-01-11T07:50:54.753Z,5.90
2023-01-11T07:53:25.521Z,5.90
2023-01-11T07:55:53.559Z,5.90
2023-01-11T07:58:21.307Z,6.10
2023-01-11T08:00:49.059Z,6.00
2023-01-11T08:03:18.251Z,6.10
2023-01-11T08:05:50.541Z,6.00
2023-01-11T08:08:18.320Z,6.20
2023-01-11T08:10:46.107Z,6.10
2023-01-11T08:13:32.584Z,6.20
2023-01-11T08:16:00.789Z,6.40
2023-01-11T08:18:29.909Z,6.20
2023-01-11T08:20:57.864Z,6.20
2023-01-11T08:23:27.102Z,6.30
2023-01-11T08:25:57.690Z,6.30
2023-01-11T08:28:25.481Z,6.30
2023-01-11T08:30:53.280Z,6.40
2023-01-11T08:33:21.250Z,6.30
2023-01-11T08:35:50.387Z,6.30
2023-01-11T08:38:18.150Z,6.30
2023-01-11T08:40:46.139Z,6.60
2023-01-11T08:43:13.886Z,6.20
2023-01-11T08:45:41.648Z,6.50
2023-01-11T08:48:09.483Z,6.40
2023-01-11T08:50:39.750Z,6.40
2023-01-11T08:53:09.943Z,6.40
2023-01-11T08:55:38.217Z,6.30
2023-01-11T08:58:05.966Z,6.20
2023-01-11T09:00:33.782Z,6.60
2023-01-11T09:03:01.830Z,6.50
2023-01-11T09:05:29.600Z,6.60
2023-01-11T09:07:58.280Z,6.40
2023-01-11T09:10:27.682Z,6.50
2023-01-11T09:12:55.509Z,6.50
2023-01-11T09:15:23.598Z,6.60
2023-01-11T09:17:52.049Z,6.70
2023-01-11T09:20:21.110Z,6.60
2023-01-11T09:22:51.284Z,6.70
2023-01-11T09:25:21.270Z,6.70
2023-01-11T09:27:52.064Z,6.80
2023-01-11T09:30:21.460Z,6.70
2023-01-11T09:32:50.154Z,6.80
2023-01-11T09:35:19.190Z,6.90
2023-01-11T09:37:49.770Z,6.90
2023-01-11T09:40:21.520Z,6.90
2023-01-11T09:42:52.758Z,6.90
2023-01-11T09:45:23.013Z,6.90
2023-01-11T09:47:54.119Z,6.90
2023-01-11T09:50:26.084Z,6.90
2023-01-11T09:52:58.223Z,6.90
2023-01-11T09:55:33.384Z,6.90
2023-01-11T09:58:21.647Z,7.20
2023-01-11T10:00:54.845Z,6.60
2023-01-11T10:03:54.229Z,7.10
2023-01-11T10:06:26.527Z,6.80
2023-01-11T10:18:22.523Z,6.90
2023-01-11T10:18:28.850Z,7.00
2023-01-11T10:21:07.914Z,7.10
2023-01-11T10:23:47.465Z,7.10
2023-01-11T10:26:27.295Z,7.10
2023-01-11T10:29:22.230Z,7.30
2023-01-11T10:32:11.002Z,7.10
2023-01-11T10:34:59.720Z,7.10
2023-01-11T10:37:48.043Z,7.20
2023-01-11T10:40:34.902Z,7.20
2023-01-11T10:43:09.107Z,7.30
2023-01-11T10:45:41.318Z,7.30
2023-01-11T10:48:17.001Z,7.30
2023-01-11T10:50:51.764Z,7.20
2023-01-11T10:53:25.776Z,7.10
2023-01-11T10:56:03.069Z,7.30
2023-01-11T10:58:49.630Z,7.40
2023-01-11T11:01:31.108Z,7.50
2023-01-11T11:04:13.301Z,7.50
2023-01-11T11:06:48.649Z,7.50
2023-01-11T11:09:23.490Z,7.50
2023-01-11T11:11:54.388Z,7.60
2023-01-11T11:14:28.555Z,7.60
2023-01-11T11:17:07.439Z,7.00
2023-01-11T11:19:36.612Z,7.70
2023-01-11T11:22:04.474Z,7.80
2023-01-11T11:24:37.902Z,7.80
2023-01-11T11:27:15.459Z,7.80
2023-01-11T11:29:44.968Z,7.90
2023-01-11T11:32:25.402Z,7.90
2023-01-11T11:34:55.161Z,7.90
2023-01-11T11:37:28.913Z,8.00
2023-01-11T11:39:56.779Z,8.10
2023-01-11T11:42:25.420Z,8.10
2023-01-11T11:45:16.550Z,8.10
2023-01-11T11:47:44.992Z,8.20
2023-01-11T11:50:43.207Z,8.20
2023-01-11T11:53:25.965Z,8.20
2023-01-11T11:55:54.660Z,8.20
2023-01-11T11:58:25.233Z,8.20
2023-01-11T12:00:54.047Z,8.20
2023-01-11T12:03:27.402Z,8.20
2023-01-11T12:06:00.639Z,8.20
2023-01-11T12:08:29.394Z,8.30
2023-01-11T12:10:59.126Z,8.30
2023-01-11T12:13:38.172Z,8.30
2023-01-11T12:16:08.534Z,8.30
2023-01-11T12:18:42.944Z,8.30
2023-01-11T12:21:19.982Z,8.40
2023-01-11T12:23:48.129Z,8.40
2023-01-11T12:26:23.489Z,8.40
2023-01-11T12:29:10.668Z,8.30
2023-01-11T12:31:50.197Z,8.40
2023-01-11T12:34:31.747Z,8.40
2023-01-11T12:37:13.228Z,8.40
2023-01-11T12:39:49.730Z,8.40
2023-01-11T12:42:43.426Z,8.30
2023-01-11T12:45:22.073Z,8.30
2023-01-11T12:48:16.308Z,8.30
2023-01-11T12:50:59.792Z,8.30
2023-01-11T12:53:43.625Z,8.30
2023-01-11T12:56:31.463Z,8.30
2023-01-11T12:59:05.928Z,8.30
2023-01-11T13:01:49.573Z,8.30
2023-01-11T13:04:47.469Z,8.30
2023-01-11T13:07:33.838Z,8.40
2023-01-11T13:10:17.213Z,8.40
2023-01-11T13:12:50.635Z,8.40
2023-01-11T13:15:41.798Z,8.70
2023-01-11T13:18:18.396Z,8.50
2023-01-11T13:21:01.829Z,8.60
2023-01-11T13:23:39.033Z,8.70
2023-01-11T13:26:19.482Z,8.70
2023-01-11T13:28:51.120Z,8.70
2023-01-11T13:31:19.816Z,8.70
2023-01-11T13:33:52.717Z,8.70
2023-01-11T13:36:26.067Z,8.80
2023-01-11T13:38:59.418Z,8.90
2023-01-11T13:41:32.185Z,8.90
2023-01-11T13:44:04.889Z,8.90
2023-01-11T13:46:58.649Z,8.80
2023-01-11T13:49:39.335Z,8.90
2023-01-11T13:52:13.674Z,8.90
2023-01-11T13:54:52.647Z,9.00
2023-01-11T13:57:28.198Z,9.00
2023-01-11T14:00:03.002Z,9.00
2023-01-11T14:02:40.560Z,9.00
2023-01-11T14:05:15.780Z,9.00
2023-01-11T14:07:55.970Z,9.00
2023-01-11T14:10:36.596Z,9.00
2023-01-11T14:13:53.617Z,9.00
2023-01-11T14:16:29.189Z,9.00
2023-01-11T14:19:04.256Z,9.00
2023-01-11T14:21:40.298Z,9.10
2023-01-11T14:24:10.145Z,9.00
2023-01-11T14:27:24.368Z,9.10
2023-01-11T14:30:09.285Z,9.00
2023-01-11T14:33:02.255Z,9.00
2023-01-11T14:36:01.976Z,9.00
2023-01-11T14:39:03.255Z,9.00
2023-01-11T14:41:54.828Z,9.00
2023-01-11T14:44:39.549Z,9.00
2023-01-11T14:47:30.334Z,8.90
2023-01-11T14:50:13.917Z,8.90
2023-01-11T14:52:44.943Z,8.90
2023-01-11T14:55:19.841Z,8.90
2023-01-11T14:58:03.166Z,8.80
2023-01-11T15:01:04.576Z,8.80
2023-01-11T15:03:51.453Z,8.70
2023-01-11T15:06:22.650Z,8.90
2023-01-11T15:08:53.472Z,8.80
2023-01-11T15:11:33.455Z,8.80
2023-01-11T15:14:04.362Z,8.80
2023-01-11T15:16:52.304Z,8.70
2023-01-11T15:19:32.285Z,8.70
2023-01-11T15:22:03.302Z,8.60
2023-01-11T15:24:32.753Z,8.80
2023-01-11T15:27:02.202Z,8.70
2023-01-11T15:29:33.388Z,8.60
2023-01-11T15:32:08.036Z,8.60
2023-01-11T15:34:45.468Z,8.70
2023-01-11T15:37:37.594Z,8.70
2023-01-11T15:40:14.359Z,8.70
2023-01-11T15:43:15.135Z,8.70
2023-01-11T15:46:21.753Z,8.60
2023-01-11T15:49:15.501Z,8.60
2023-01-11T15:52:20.210Z,8.60
2023-01-11T15:55:16.229Z,8.60
2023-01-11T15:58:07.365Z,8.50
2023-01-11T16:01:11.532Z,8.60
2023-01-11T16:03:53.878Z,8.50
2023-01-11T16:06:33.326Z,8.60
2023-01-11T16:09:23.973Z,8.50
2023-01-11T16:12:00.521Z,8.60
2023-01-11T16:14:58.543Z,8.50
2023-01-11T16:17:27.225Z,8.50
2023-01-11T16:19:56.944Z,8.50
2023-01-11T16:22:26.699Z,8.50
2023-01-11T16:24:59.835Z,8.50
2023-01-11T16:27:30.367Z,8.40
2023-01-11T16:29:58.225Z,8.50
2023-01-11T16:32:29.563Z,8.50
2023-01-11T16:34:57.350Z,8.50
2023-01-11T16:37:29.371Z,8.50
2023-01-11T16:40:04.187Z,8.40
2023-01-11T16:42:36.703Z,8.40
2023-01-11T16:45:08.387Z,8.40
2023-01-11T16:47:36.166Z,8.40
2023-01-11T16:50:22.104Z,8.40
2023-01-11T16:52:53.149Z,8.40
2023-01-11T16:55:30.675Z,8.40
2023-01-11T16:58:00.995Z,8.40
2023-01-11T17:00:39.665Z,8.40
2023-01-11T17:03:26.111Z,8.40
2023-01-11T17:06:19.544Z,8.40
2023-01-11T17:08:50.536Z,8.40
2023-01-11T17:11:32.675Z,8.40
2023-01-11T17:14:17.714Z,8.40
2023-01-11T17:16:48.815Z,8.40
2023-01-11T17:19:18.491Z,8.40
2023-01-11T17:21:52.621Z,8.40
2023-01-11T17:24:25.706Z,8.40
2023-01-11T17:26:58.385Z,8.40
2023-01-11T17:29:30.166Z,8.40
2023-01-11T17:31:59.282Z,8.40
2023-01-11T17:34:31.505Z,8.40
2023-01-11T17:37:00.394Z,8.40
2023-01-11T17:39:32.193Z,8.30
2023-01-11T17:42:21.620Z,8.30
2023-01-11T17:45:08.700Z,8.30
2023-01-11T17:47:39.395Z,8.40
2023-01-11T17:50:18.773Z,8.40
2023-01-11T17:52:54.440Z,8.30
2023-01-11T17:55:25.122Z,8.40
2023-01-11T17:58:13.736Z,8.30
2023-01-11T18:00:43.405Z,8.30
2023-01-11T18:03:15.689Z,8.30
2023-01-11T18:05:43.556Z,8.30
2023-01-11T18:08:20.148Z,8.30
2023-01-11T18:10:54.474Z,8.30
2023-01-11T18:13:31.369Z,8.30
2023-01-11T18:15:59.492Z,8.30
2023-01-11T18:18:42.845Z,8.20
2023-01-11T18:21:30.868Z,8.20
2023-01-11T18:24:46.229Z,8.20
2023-01-11T18:27:24.927Z,8.20
2023-01-11T18:29:55.089Z,8.20
2023-01-11T18:32:23.435Z,8.20
2023-01-11T18:34:54.123Z,8.20
2023-01-11T18:37:22.382Z,8.20
2023-01-11T18:39:52.022Z,8.20
2023-01-11T18:42:23.599Z,8.20
2023-01-11T18:44:51.499Z,8.20
2023-01-11T18:47:22.494Z,8.20
2023-01-11T18:49:51.210Z,8.20
2023-01-11T18:52:19.671Z,8.20
2023-01-11T18:54:47.618Z,8.20
2023-01-11T18:57:15.369Z,8.10
2023-01-11T18:59:43.216Z,8.10
2023-01-11T19:02:24.461Z,8.10
2023-01-11T19:04:54.023Z,8.30
2023-01-11T19:07:22.956Z,8.10
2023-01-11T19:09:50.953Z,8.10
2023-01-11T19:12:19.041Z,8.10
2023-01-11T19:14:46.830Z,8.10
2023-01-11T19:17:14.739Z,8.10
2023-01-11T19:19:43.965Z,8.10
2023-01-11T19:22:12.472Z,8.10
2023-01-11T19:24:41.397Z,8.10
2023-01-11T19:27:09.239Z,8.10
2023-01-11T19:29:37.054Z,8.10
2023-01-11T19:32:05.097Z,8.10
2023-01-11T19:34:34.655Z,8.10
2023-01-11T19:37:03.984Z,8.00
2023-01-11T19:39:31.758Z,8.10
2023-01-11T19:42:01.438Z,8.10
2023-01-11T19:44:32.863Z,8.10
2023-01-11T19:47:10.755Z,8.10
2023-01-11T19:49:40.066Z,8.10
2023-01-11T19:52:13.017Z,8.10
2023-01-11T19:54:42.168Z,8.10
2023-01-11T19:57:11.287Z,8.10
2023-01-11T19:59:39.391Z,8.10
2023-01-11T20:02:07.727Z,7.90
2023-01-11T20:04:35.581Z,8.10
2023-01-11T20:07:03.639Z,8.10
2023-01-11T20:09:32.766Z,8.10
2023-01-11T20:12:00.610Z,8.10
2023-01-11T20:14:28.386Z,8.10
2023-01-11T20:16:56.157Z,8.10
2023-01-11T20:19:23.918Z,8.00
2023-01-11T20:21:51.651Z,8.10
2023-01-11T20:24:19.466Z,8.10
2023-01-11T20:26:48.590Z,8.10
2023-01-11T20:29:16.395Z,8.10
2023-01-11T20:31:44.167Z,8.10
2023-01-11T20:34:13.304Z,8.10
2023-01-11T20:36:41.977Z,7.90
2023-01-11T20:39:10.974Z,8.10
2023-01-11T20:41:48.462Z,8.10
2023-01-11T20:44:19.326Z,8.10
2023-01-11T20:46:48.431Z,8.10
2023-01-11T20:49:17.150Z,8.10
2023-01-11T20:51:45.904Z,8.10
2023-01-11T20:54:14.099Z,8.10
2023-01-11T20:56:42.498Z,8.10
2023-01-11T21:01:39.554Z,8.10
2023-01-11T21:04:08.972Z,8.10
2023-01-11T21:06:38.608Z,8.10
2023-01-11T21:09:07.416Z,8.30
2023-01-11T21:11:35.746Z,8.10
2023-01-11T21:14:05.145Z,8.10
2023-01-11T21:16:33.086Z,8.10
2023-01-11T21:19:03.566Z,8.10
2023-01-11T21:21:33.695Z,8.10
2023-01-11T21:24:03.285Z,8.10
2023-01-11T21:26:32.039Z,8.00
2023-01-11T21:29:01.837Z,8.10
2023-01-11T21:31:32.642Z,8.00
2023-01-11T21:34:02.810Z,8.00
2023-01-11T21:36:31.671Z,8.00
2023-01-11T21:39:00.675Z,8.10
2023-01-11T21:41:47.710Z,8.00
2023-01-11T21:44:16.815Z,8.00
2023-01-11T21:46:44.817Z,8.10
2023-01-11T21:49:14.604Z,8.10
2023-01-11T21:51:42.917Z,8.10
2023-01-11T21:54:12.685Z,8.00
2023-01-11T21:56:41.749Z,8.00
2023-01-11T21:59:09.837Z,8.00
2023-01-11T22:01:38.724Z,8.00
2023-01-11T22:04:07.119Z,8.10
2023-01-11T22:06:38.511Z,8.00
2023-01-11T22:09:07.209Z,8.10
2023-01-11T22:11:35.038Z,8.10
2023-01-11T22:14:03.641Z,8.10
2023-01-11T22:16:32.449Z,8.00
2023-01-11T22:19:01.578Z,8.10
2023-01-11T22:21:29.622Z,8.10
2023-01-11T22:23:59.894Z,8.10
2023-01-11T22:26:29.914Z,8.10
2023-01-11T22:29:12.896Z,8.10
2023-01-11T22:31:42.393Z,8.10
2023-01-11T22:34:10.602Z,8.10
2023-01-11T22:36:38.686Z,8.10
2023-01-11T22:39:08.049Z,8.10
2023-01-11T22:41:36.062Z,8.10
2023-01-11T22:44:04.384Z,8.10
2023-01-11T22:46:32.149Z,8.10
2023-01-11T22:48:59.976Z,8.10
2023-01-11T22:51:28.406Z,8.10
2023-01-11T22:53:56.763Z,8.10
2023-01-11T22:56:29.123Z,8.10
2023-01-11T22:58:57.231Z,8.10
2023-01-11T23:01:26.419Z,8.10
2023-01-11T23:03:55.733Z,8.10
2023-01-11T23:06:25.360Z,8.10
2023-01-11T23:08:54.505Z,8.00
2023-01-11T23:11:43.349Z,8.00
2023-01-11T23:14:12.947Z,8.00
2023-01-11T23:16:41.721Z,8.00
2023-01-11T23:19:10.569Z,8.00
2023-01-11T23:21:41.503Z,8.00
2023-01-11T23:24:10.062Z,8.00
2023-01-11T23:26:39.439Z,8.00
2023-01-11T23:29:07.378Z,7.90
2023-01-11T23:31:35.517Z,7.90
2023-01-11T23:34:06.847Z,7.90
2023-01-11T23:36:37.725Z,7.90
2023-01-11T23:39:06.056Z,7.90
2023-01-11T23:41:51.298Z,7.90
2023-01-11T23:44:20.430Z,7.80
2023-01-11T23:47:05.557Z,7.80
2023-01-11T23:49:34.007Z,7.80
2023-01-11T23:52:02.340Z,7.70
2023-01-11T23:54:32.036Z,7.70
2023-01-11T23:57:00.927Z,7.70
2023-01-11T23:59:30.418Z,7.70
